Time;durP1;ratioP1;P1;durP2;ratioP2;P2;SDS_P1;SDS_P2;PMS_P1;PMS_P2;Temp;Humidity;BMP_temperature;BMP_pressure;BME280_temperature;BME280_humidity;BME280_pressure;Samples;Min_cycle;Max_cycle;Signal;HPM_P1;HPM_P2
2021/11/14 00:01:39;;;;;;;1.63;1.48;;;;;;;12.58;62.21;100944.88;4901902;29;20053;-73
2021/11/14 00:04:17;;;;;;;0.73;0.73;;;;;;;12.66;62.20;100966.34;4904115;29;20115;-70
2021/11/14 00:06:43;;;;;;;0.60;0.60;;;;;;;12.66;62.47;100969.09;4915130;29;20039;-72
2021/11/14 00:09:20;;;;;;;2.45;1.23;;;;;;;12.76;62.09;100976.53;4944148;29;20035;-73
2021/11/14 00:11:45;;;;;;;4.15;1.20;;;;;;;12.78;62.49;100981.78;4906913;29;20466;-73
2021/11/14 00:14:15;;;;;;;1.27;1.27;;;;;;;12.74;62.25;100975.97;4939383;29;20034;-72
2021/11/14 00:16:43;;;;;;;1.20;1.10;;;;;;;12.78;61.77;100977.09;4938640;29;20083;-72
2021/11/14 00:19:09;;;;;;;1.27;1.17;;;;;;;12.74;62.24;100974.03;4926582;29;20043;-73
2021/11/14 00:21:40;;;;;;;1.05;1.05;;;;;;;12.77;62.63;100963.66;4921913;29;20040;-75
2021/11/14 00:24:06;;;;;;;1.60;1.50;;;;;;;12.78;62.25;100966.13;4920755;29;20703;-75
2021/11/14 00:26:34;;;;;;;1.35;1.35;;;;;;;12.80;62.69;100968.59;4933446;29;20036;-73
2021/11/14 00:29:02;;;;;;;1.30;1.20;;;;;;;12.76;62.22;100954.56;4961577;28;20023;-73
2021/11/14 00:31:28;;;;;;;1.38;1.00;;;;;;;12.80;62.66;100963.09;4945318;29;20118;-73
2021/11/14 00:34:05;;;;;;;2.60;1.48;;;;;;;12.74;62.45;100954.84;4925991;28;20496;-74
2021/11/14 00:36:32;;;;;;;1.05;0.95;;;;;;;12.80;62.87;100969.41;4946642;29;20038;-73
2021/11/14 00:39:07;;;;;;;0.82;0.82;;;;;;;12.74;62.90;100954.03;4932146;29;20020;-75
2021/11/14 00:41:33;;;;;;;1.27;1.15;;;;;;;12.67;62.60;100948.75;4941132;29;20026;-74
2021/11/14 00:44:10;;;;;;;3.60;0.90;;;;;;;12.78;62.88;100973.53;4954881;28;20042;-72
2021/11/14 00:46:36;;;;;;;0.80;0.80;;;;;;;12.67;62.87;100959.75;4962381;28;20034;-74
2021/11/14 00:49:02;;;;;;;0.80;0.80;;;;;;;12.70;63.15;100970.22;4955245;28;20019;-73
2021/11/14 00:51:28;;;;;;;0.80;0.60;;;;;;;12.69;63.02;100976.78;4940878;29;20070;-73
2021/11/14 00:53:58;;;;;;;1.65;0.90;;;;;;;12.73;62.75;100982.56;4926606;29;20031;-73
2021/11/14 00:56:29;;;;;;;0.90;0.85;;;;;;;12.73;63.18;100988.88;4940476;29;20477;-73
2021/11/14 00:58:58;;;;;;;3.33;0.80;;;;;;;12.62;62.89;100973.44;4941247;29;20031;-74
2021/11/14 01:01:31;;;;;;;0.93;0.70;;;;;;;12.61;63.00;100982.75;4951566;28;20132;-74
2021/11/14 01:04:01;;;;;;;1.15;1.05;;;;;;;12.62;63.18;100984.44;4940157;29;20043;-75
2021/11/14 01:06:29;;;;;;;1.13;0.77;;;;;;;12.66;63.62;100991.03;4926132;29;20031;-74
2021/11/14 01:08:57;;;;;;;0.88;0.88;;;;;;;12.64;62.98;100998.69;4942393;29;20031;-73
2021/11/14 01:11:23;;;;;;;1.38;0.90;;;;;;;12.62;63.57;100995.41;4915772;29;20034;-72
2021/11/14 01:13:51;;;;;;;0.50;0.50;;;;;;;12.53;63.13;100980.53;4940484;29;20471;-72
2021/11/14 01:16:20;;;;;;;0.70;0.70;;;;;;;12.57;63.42;100981.63;4935134;29;20074;-73
2021/11/14 01:19:03;;;;;;;1.23;1.00;;;;;;;12.54;63.75;100972.03;4935935;29;20027;-73
2021/11/14 01:21:34;;;;;;;1.50;0.65;;;;;;;12.54;63.40;100977.53;4917604;29;20042;-72
2021/11/14 01:24:00;;;;;;;0.90;0.90;;;;;;;12.50;63.44;100972.81;4938895;29;20091;-75
2021/11/14 01:26:34;;;;;;;3.35;0.70;;;;;;;12.50;63.38;100981.06;4924616;29;20379;-75
2021/11/14 01:33:30;;;;;;;0.55;0.40;;;;;;;12.59;63.53;100995.94;4886537;29;20040;-77
2021/11/14 01:35:59;;;;;;;;;;;;;;;;;;;;;
2021/11/14 01:38:29;;;;;;;1.15;1.05;;;;;;;12.38;63.56;100978.50;4890619;29;20112;-76
2021/11/14 01:41:00;;;;;;;0.45;0.45;;;;;;;12.49;63.66;101001.38;4883663;29;20080;-77
2021/11/14 01:43:53;;;;;;;0.63;0.60;;;;;;;12.31;64.18;100976.03;4908042;29;20067;-75
2021/11/14 01:46:19;;;;;;;0.30;0.30;;;;;;;12.35;64.01;100990.84;4936215;29;20587;-75
2021/11/14 01:48:45;;;;;;;0.43;0.43;;;;;;;12.33;64.07;100993.03;4939061;29;20091;-76
2021/11/14 01:51:12;;;;;;;1.60;0.52;;;;;;;12.35;64.36;101001.81;4938317;29;20102;-75
2021/11/14 01:53:43;;;;;;;0.60;0.60;;;;;;;12.42;64.40;101014.47;4945121;29;20038;-76
2021/11/14 01:56:12;;;;;;;0.32;0.32;;;;;;;12.28;64.26;100993.00;4940850;29;20032;-75
2021/11/14 01:58:41;;;;;;;0.38;0.30;;;;;;;12.30;64.09;100999.03;4938672;29;20031;-74
2021/11/14 02:01:12;;;;;;;4.80;0.40;;;;;;;12.35;64.57;101007.31;4943954;28;20062;-74
2021/11/14 02:03:45;;;;;;;0.65;0.65;;;;;;;12.26;64.42;100995.16;4945740;28;20023;-75
2021/11/14 02:06:19;;;;;;;0.82;0.30;;;;;;;12.25;64.28;100999.03;4959751;28;20059;-75
2021/11/14 02:08:48;;;;;;;1.33;0.57;;;;;;;12.34;65.00;101010.31;4943447;29;20039;-75
2021/11/14 02:11:16;;;;;;;0.38;0.38;;;;;;;12.33;64.46;101020.44;4960980;28;20030;-75
2021/11/14 02:13:50;;;;;;;0.50;0.50;;;;;;;12.26;64.67;101019.84;4944217;29;20031;-76
2021/11/14 02:16:23;;;;;;;1.55;0.40;;;;;;;12.30;64.47;101020.97;4944175;29;20034;-78
2021/11/14 02:18:49;;;;;;;0.57;0.40;;;;;;;12.32;64.43;101024.28;4944882;28;20045;-74
2021/11/14 02:21:15;;;;;;;0.28;0.17;;;;;;;12.20;64.37;101005.25;4963035;28;20062;-76
2021/11/14 02:23:51;;;;;;;0.30;0.25;;;;;;;12.24;64.86;101016.56;4949959;29;20027;-74
2021/11/14 02:26:24;;;;;;;1.00;0.60;;;;;;;12.29;65.01;101019.31;4946239;29;20091;-75
2021/11/14 02:28:51;;;;;;;0.77;0.40;;;;;;;12.30;64.73;101020.97;4950355;29;20031;-75
2021/11/14 02:31:19;;;;;;;1.70;0.45;;;;;;;12.31;65.02;101022.63;4946524;29;20046;-76
2021/11/14 02:33:45;;;;;;;0.68;0.60;;;;;;;12.32;64.90;101027.00;4941609;29;20035;-75
2021/11/14 02:36:11;;;;;;;0.25;0.25;;;;;;;12.27;65.08;101016.03;4965686;28;20027;-76
2021/11/14 02:38:38;;;;;;;0.40;0.30;;;;;;;12.27;64.99;101017.94;4946464;29;20055;-75
2021/11/14 02:41:06;;;;;;;0.43;0.43;;;;;;;12.26;65.00;101025.31;4965232;28;20026;-76
2021/11/14 02:43:34;;;;;;;0.50;0.50;;;;;;;12.26;64.94;101027.25;4945962;29;20032;-76
2021/11/14 02:46:00;;;;;;;0.55;0.52;;;;;;;12.21;65.26;101022.56;4939135;28;20074;-76
2021/11/14 02:48:26;;;;;;;0.40;0.40;;;;;;;12.24;65.64;101027.50;4928340;29;20039;-78
2021/11/14 02:50:56;;;;;;;0.50;0.30;;;;;;;12.22;65.11;101021.44;4948904;28;20086;-78
2021/11/14 02:53:22;;;;;;;3.40;0.32;;;;;;;12.22;65.21;101013.22;4951491;29;20138;-76
2021/11/14 02:55:48;;;;;;;1.02;0.45;;;;;;;12.16;65.31;101009.66;4963708;28;20031;-78
2021/11/14 02:58:21;;;;;;;0.52;0.32;;;;;;;12.19;64.85;101021.97;4947894;29;20034;-78
2021/11/14 03:01:23;;;;;;;1.05;0.32;;;;;;;12.15;65.20;101018.09;4942564;29;20047;-78
2021/11/14 03:03:58;;;;;;;0.40;0.40;;;;;;;12.22;65.03;101024.19;4948693;29;20019;-77
2021/11/14 03:06:28;;;;;;;2.20;0.80;;;;;;;12.14;65.66;101014.53;4942566;29;20366;-79
2021/11/14 03:08:54;;;;;;;0.60;0.60;;;;;;;12.10;65.40;100998.88;4952680;28;20313;-79
2021/11/14 03:11:29;;;;;;;1.35;0.60;;;;;;;12.13;65.52;101003.84;4949929;29;20035;-76
2021/11/14 03:13:55;;;;;;;0.65;0.65;;;;;;;12.19;65.41;101016.50;4948921;29;20050;-78
2021/11/14 03:16:33;;;;;;;1.45;0.85;;;;;;;12.14;65.31;101021.94;4950292;29;20043;-76
2021/11/14 03:18:59;;;;;;;0.60;0.52;;;;;;;12.15;65.40;101021.69;4967383;28;20026;-76
2021/11/14 03:21:28;;;;;;;0.55;0.55;;;;;;;12.18;65.83;101025.84;4966419;28;20030;-75
2021/11/14 03:23:56;;;;;;;0.70;0.70;;;;;;;12.14;65.44;101017.28;4922280;29;20066;-76
2021/11/14 03:26:43;;;;;;;1.92;1.15;;;;;;;12.18;65.26;101025.84;4920243;28;20050;-77
2021/11/14 03:29:09;;;;;;;0.90;0.90;;;;;;;12.08;65.67;101023.00;4950903;29;20451;-78
2021/11/14 03:31:39;;;;;;;0.82;0.70;;;;;;;12.03;65.70;101021.88;4949281;28;20031;-76
2021/11/14 03:34:05;;;;;;;1.08;0.68;;;;;;;12.00;66.15;101022.41;4979184;28;20095;-78
2021/11/14 03:36:33;;;;;;;0.68;0.57;;;;;;;12.00;66.09;101019.66;4948759;29;20111;-76
2021/11/14 03:39:04;;;;;;;2.20;1.05;;;;;;;12.07;65.73;101032.31;4965134;28;20030;-76
2021/11/14 03:41:33;;;;;;;0.82;0.82;;;;;;;12.04;66.37;101039.94;4927680;28;20030;-76
2021/11/14 03:44:03;;;;;;;1.58;0.70;;;;;;;12.08;66.14;101028.50;4966462;28;20050;-75
2021/11/14 03:46:30;;;;;;;3.25;0.57;;;;;;;12.05;66.07;101029.84;4946894;29;20118;-75
2021/11/14 03:48:56;;;;;;;0.50;0.50;;;;;;;12.08;65.91;101033.97;4946774;28;20032;-75
2021/11/14 03:51:23;;;;;;;0.70;0.70;;;;;;;12.12;66.32;101035.09;4964027;28;20027;-76
2021/11/14 03:53:50;;;;;;;0.80;0.63;;;;;;;11.97;66.35;101011.97;4947745;29;20031;-75
2021/11/14 03:56:16;;;;;;;1.45;1.33;;;;;;;12.07;66.07;101024.09;4946048;28;20125;-75
2021/11/14 03:58:43;;;;;;;0.70;0.70;;;;;;;11.98;65.99;101019.06;4961940;28;20055;-75
2021/11/14 04:01:15;;;;;;;3.35;1.08;;;;;;;11.94;66.36;101011.63;4969152;28;20051;-78
2021/11/14 04:03:41;;;;;;;1.08;1.08;;;;;;;11.90;66.78;101022.28;4958759;29;20024;-75
2021/11/14 04:06:07;;;;;;;1.00;0.77;;;;;;;11.97;66.90;101036.63;4964452;28;20027;-75
2021/11/14 04:08:36;;;;;;;0.70;0.70;;;;;;;11.86;66.68;101032.09;4942875;29;20102;-75
2021/11/14 04:11:02;;;;;;;0.50;0.50;;;;;;;11.86;66.73;101026.63;4927401;29;20031;-75
2021/11/14 04:13:34;;;;;;;0.70;0.70;;;;;;;11.88;66.97;101032.66;4943450;28;20038;-76
2021/11/14 04:16:06;;;;;;;0.82;0.82;;;;;;;11.85;66.64;101030.44;4929334;29;20055;-75
2021/11/14 04:18:31;;;;;;;0.60;0.60;;;;;;;11.70;67.15;101018.25;4944041;29;20031;-74
2021/11/14 04:21:00;;;;;;;2.40;0.98;;;;;;;11.75;67.01;101031.16;4942541;29;20091;-75
2021/11/14 04:23:26;;;;;;;0.70;0.70;;;;;;;11.68;67.34;101025.06;4945076;29;20067;-74
2021/11/14 04:26:03;;;;;;;0.50;0.50;;;;;;;11.65;67.50;101015.47;4945194;29;20031;-74
2021/11/14 04:28:31;;;;;;;1.13;0.73;;;;;;;11.63;67.17;101012.13;4930168;28;20051;-74
2021/11/14 04:30:59;;;;;;;0.80;0.80;;;;;;;11.70;67.35;101023.72;4928367;28;20039;-73
2021/11/14 04:33:30;;;;;;;0.52;0.52;;;;;;;11.80;67.55;101038.63;4951288;29;20031;-74
2021/11/14 04:35:56;;;;;;;0.70;0.52;;;;;;;11.81;67.17;101040.25;4961307;28;20019;-74
2021/11/14 04:38:21;;;;;;;0.60;0.60;;;;;;;11.81;66.82;101034.78;4948686;29;20091;-74
2021/11/14 04:40:50;;;;;;;0.90;0.90;;;;;;;11.80;67.45;101035.88;4930381;29;20035;-76
2021/11/14 04:43:18;;;;;;;0.73;0.73;;;;;;;11.73;67.46;101027.03;4963675;28;20133;-74
2021/11/14 04:45:45;;;;;;;0.95;0.70;;;;;;;11.77;67.05;101033.63;4944544;29;20054;-73
2021/11/14 05:01:50;;;;;;;1.60;1.50;;;;;;;11.66;67.01;101019.84;4961871;28;20070;-74
2021/11/14 05:04:18;;;;;;;1.60;0.98;;;;;;;11.67;67.31;101021.50;4928453;29;20393;-76
2021/11/14 05:06:51;;;;;;;1.02;0.93;;;;;;;11.67;67.49;101021.50;4967948;28;20030;-76
2021/11/14 05:09:17;;;;;;;2.55;1.33;;;;;;;11.72;67.21;101036.34;4945333;29;20478;-76
2021/11/14 05:15:40;;;;;;;0.60;0.60;;;;;;;11.66;67.08;101021.75;4860574;29;20065;-78
2021/11/14 05:18:26;;;;;;;1.02;0.80;;;;;;;11.66;66.95;101017.09;4962260;28;20034;-76
2021/11/14 05:21:33;;;;;;;0.60;0.45;;;;;;;11.87;66.72;101050.19;4946905;29;20037;-76
2021/11/14 05:24:52;;;;;;;2.05;0.55;;;;;;;11.66;67.12;101022.56;4919033;29;20046;-76
2021/11/14 05:27:54;;;;;;;0.77;0.60;;;;;;;11.83;66.99;101044.41;4932209;29;20043;-76
2021/11/14 05:30:27;;;;;;;0.80;0.40;;;;;;;11.81;66.61;101040.25;4961115;29;20023;-75
2021/11/14 05:36:41;;;;;;;;;;;;;;;;;;;;;
2021/11/14 05:39:30;;;;;;;;;;;;;;;;;;;;;
2021/11/14 05:42:25;;;;;;;0.50;0.50;;;;;;;11.87;66.18;101039.22;4883254;29;20132;-77
2021/11/14 05:45:18;;;;;;;0.40;0.40;;;;;;;11.83;66.18;101038.09;4890339;29;20037;-76
2021/11/14 05:47:46;;;;;;;0.80;0.70;;;;;;;11.73;65.55;101027.03;4926866;28;20074;-76
2021/11/14 05:50:29;;;;;;;2.25;0.82;;;;;;;11.81;65.66;101035.63;4928392;29;20031;-76
2021/11/14 05:53:15;;;;;;;0.65;0.40;;;;;;;11.78;65.79;101040.78;4946790;29;20041;-79
2021/11/14 05:55:46;;;;;;;0.52;0.50;;;;;;;11.77;65.98;101039.97;4940971;29;20087;-79
2021/11/14 06:01:16;;;;;;;0.40;0.40;;;;;;;11.82;65.53;101053.69;4947124;28;20165;-77
2021/11/14 06:06:33;;;;;;;0.68;0.60;;;;;;;11.81;65.73;101051.22;4963688;28;20043;-78
2021/11/14 06:09:01;;;;;;;0.50;0.50;;;;;;;11.88;65.81;101057.31;4931675;29;20062;-79
2021/11/14 06:11:27;;;;;;;0.50;0.40;;;;;;;11.76;65.16;101049.25;4945838;29;20035;-75
2021/11/14 06:13:53;;;;;;;1.30;1.20;;;;;;;11.82;65.48;101070.13;4944288;29;20030;-75
2021/11/14 06:16:20;;;;;;;0.90;0.90;;;;;;;11.84;65.54;101078.09;4962612;29;20024;-76
2021/11/14 06:18:46;;;;;;;1.40;0.93;;;;;;;11.76;65.68;101064.88;4945450;29;20099;-76
2021/11/14 06:21:19;;;;;;;0.70;0.70;;;;;;;11.86;65.47;101064.97;4946724;28;20055;-76
2021/11/14 06:23:52;;;;;;;0.80;0.80;;;;;;;11.77;65.70;101055.56;4934501;29;20051;-76
2021/11/14 06:26:25;;;;;;;0.90;0.90;;;;;;;11.81;65.65;101062.19;4932415;28;20031;-76
2021/11/14 06:28:51;;;;;;;0.80;0.80;;;;;;;11.81;65.53;101062.19;4968232;29;20045;-76
2021/11/14 06:31:27;;;;;;;;;;;;;;;;;;;;;
2021/11/14 06:33:52;;;;;;;0.55;0.55;;;;;;;11.88;65.57;101081.97;4953735;29;20095;-78
2021/11/14 06:36:21;;;;;;;1.33;1.05;;;;;;;11.76;65.27;101062.97;4947113;29;20046;-78
2021/11/14 06:38:56;;;;;;;2.05;1.08;;;;;;;11.82;65.42;101069.31;4951562;29;20087;-77
2021/11/14 06:41:31;;;;;;;0.80;0.80;;;;;;;11.73;65.64;101066.22;4945153;29;20031;-77
2021/11/14 08:14:40;;;;;;;0.75;0.57;;;;;;;12.19;65.43;101176.38;5009242;23;20172;-80
2021/11/14 08:17:06;;;;;;;1.38;1.10;;;;;;;12.22;64.77;101170.38;4899389;29;20104;-76
2021/11/14 08:19:42;;;;;;;0.85;0.80;;;;;;;12.19;64.57;101162.66;4926920;29;20505;-77
2021/11/14 08:23:17;;;;;;;0.57;0.40;;;;;;;12.30;64.32;101174.53;4920342;29;20055;-79
2021/11/14 08:26:30;;;;;;;;;;;;;;;;;;;;;
2021/11/14 08:29:26;;;;;;;2.40;0.80;;;;;;;12.49;64.37;101204.34;4917964;29;20092;-78
2021/11/14 08:31:52;;;;;;;2.10;0.90;;;;;;;12.40;64.63;101187.53;4919727;29;20035;-75
2021/11/14 08:37:34;;;;;;;0.60;0.60;;;;;;;12.57;64.34;101190.16;4899924;29;20036;-77
2021/11/14 08:40:20;;;;;;;;;;;;;;;;;;;;;
2021/11/14 08:42:48;;;;;;;;;;;;;;;12.80;63.90;101213.66;4923141;29;20120;-76
2021/11/14 08:45:23;;;;;;;2.42;1.30;;;;;;;12.55;63.81;101203.31;4907540;29;19914;-74
2021/11/14 08:47:51;;;;;;;1.85;1.75;;;;;;;12.62;63.69;101206.66;4921335;29;20036;-79
2021/11/14 08:50:22;;;;;;;2.00;1.30;;;;;;;12.59;64.17;101196.22;4915131;29;20028;-75
2021/11/14 08:52:55;;;;;;;3.67;1.52;;;;;;;12.62;64.40;101176.47;4920320;29;20028;-75
2021/11/14 08:55:23;;;;;;;3.33;1.60;;;;;;;12.73;64.49;101178.22;4929105;29;20040;-75
2021/11/14 08:57:52;;;;;;;3.88;1.33;;;;;;;12.90;64.54;101182.75;4905562;29;20442;-75
2021/11/14 09:00:24;;;;;;;1.75;1.42;;;;;;;13.20;63.57;101211.50;4921511;29;20042;-76
2021/11/14 09:02:52;;;;;;;1.63;1.50;;;;;;;13.28;63.64;101202.75;4907306;29;20120;-74
2021/11/14 09:05:40;;;;;;;1.90;1.08;;;;;;;13.50;63.73;101213.63;4915011;29;20558;-75
2021/11/14 09:08:06;;;;;;;2.05;1.17;;;;;;;13.58;63.40;101212.28;4926760;29;20088;-75
2021/11/14 09:10:36;;;;;;;1.52;1.42;;;;;;;13.70;63.58;101212.91;4911542;29;20043;-75
2021/11/14 09:13:10;;;;;;;5.25;2.20;;;;;;;13.77;62.98;101216.25;4932001;29;20101;-79
2021/11/14 09:15:39;;;;;;;1.88;1.52;;;;;;;13.85;63.13;101203.09;4937702;29;20066;-78
2021/11/14 09:18:14;;;;;;;1.08;0.98;;;;;;;13.99;62.58;101212.50;4944572;29;20133;-79
2021/11/14 09:20:43;;;;;;;1.33;1.10;;;;;;;14.03;62.38;101193.53;4934342;29;20052;-77
2021/11/14 09:23:27;;;;;;;;;;;;;;;;;;;;;
2021/11/14 09:26:15;;;;;;;1.83;1.40;;;;;;;14.30;61.64;101209.81;4929018;29;20119;-82
2021/11/14 09:28:50;;;;;;;1.15;1.10;;;;;;;14.27;61.42;101200.19;4932333;29;20398;-79
2021/11/14 09:31:16;;;;;;;1.27;1.17;;;;;;;14.27;61.25;101197.44;4936338;29;20084;-77
2021/11/14 09:33:56;;;;;;;2.22;1.42;;;;;;;14.48;61.43;101222.22;4943233;29;20027;-76
2021/11/14 09:36:44;;;;;;;4.50;2.00;;;;;;;14.36;61.02;101200.47;4928980;29;20032;-77
2021/11/14 09:39:22;;;;;;;;;;;;;;;;;;;;;
2021/11/14 09:42:00;;;;;;;;;;;;;;;;;;;;;
2021/11/14 09:44:56;;;;;;;1.38;1.27;;;;;;;14.52;60.97;101200.50;4927170;29;20071;-80
2021/11/14 09:47:56;;;;;;;1.52;1.20;;;;;;;14.60;61.20;101220.06;4926285;29;20119;-77
2021/11/14 09:50:41;;;;;;;1.48;1.23;;;;;;;14.35;60.66;101179.56;4910773;29;20048;-78
2021/11/14 09:53:18;;;;;;;1.75;1.52;;;;;;;14.49;60.42;101210.94;4922925;29;20785;-75
2021/11/14 09:55:46;;;;;;;2.58;1.60;;;;;;;14.48;60.87;101194.72;4927908;29;20028;-75
2021/11/14 09:58:19;;;;;;;2.17;1.60;;;;;;;14.58;60.74;101191.97;4922090;29;20111;-76
2021/11/14 10:00:47;;;;;;;3.08;1.75;;;;;;;14.73;60.53;101195.84;4942236;29;20071;-77
2021/11/14 10:03:13;;;;;;;1.63;1.55;;;;;;;14.74;60.26;101198.34;4930199;29;20024;-76
2021/11/14 10:05:48;;;;;;;1.73;1.60;;;;;;;14.79;60.53;101201.09;4938744;29;20023;-78
2021/11/14 10:08:14;;;;;;;3.47;1.45;;;;;;;14.79;60.24;101194.75;4925205;29;20458;-75
2021/11/14 10:10:48;;;;;;;1.50;1.15;;;;;;;14.88;59.96;101208.78;4929491;29;20055;-74
2021/11/14 10:13:22;;;;;;;1.92;1.05;;;;;;;14.95;59.91;101220.34;4938614;29;20054;-73
2021/11/14 10:16:06;;;;;;;2.70;1.50;;;;;;;14.91;60.33;101225.59;4942943;29;20022;-73
2021/11/14 10:18:45;;;;;;;1.48;1.38;;;;;;;14.89;60.28;101222.28;4923354;29;20043;-73
2021/11/14 10:21:13;;;;;;;1.70;1.60;;;;;;;14.91;60.36;101225.59;4932549;29;20037;-72
2021/11/14 10:23:39;;;;;;;1.58;1.38;;;;;;;14.96;60.50;101213.75;4926706;29;20024;-75
2021/11/14 10:26:16;;;;;;;1.50;1.40;;;;;;;15.20;60.80;101233.31;4945918;29;20020;-74
2021/11/14 10:28:51;;;;;;;1.42;1.20;;;;;;;15.32;60.17;101235.75;4928701;29;20036;-74
2021/11/14 10:31:35;;;;;;;;;;;;;;;;;;;;;
2021/11/14 10:34:02;;;;;;;3.53;1.63;;;;;;;15.40;59.23;101237.94;4940909;29;20123;-73
2021/11/14 10:36:30;;;;;;;1.80;1.70;;;;;;;15.49;59.12;101247.31;4924444;29;20066;-74
2021/11/14 10:39:10;;;;;;;1.65;1.40;;;;;;;15.57;59.23;101250.59;4934649;29;20028;-72
2021/11/14 10:41:47;;;;;;;4.47;1.65;;;;;;;15.56;59.20;101241.47;4939791;29;20344;-72
2021/11/14 10:44:15;;;;;;;1.92;1.33;;;;;;;15.62;59.00;101253.31;4937893;29;20027;-73
2021/11/14 10:46:41;;;;;;;2.05;1.85;;;;;;;15.64;58.76;101253.88;4942246;29;20446;-73
2021/11/14 10:49:09;;;;;;;1.27;1.17;;;;;;;15.58;58.97;101244.81;4906289;29;20050;-70
2021/11/14 10:51:36;;;;;;;2.03;1.42;;;;;;;15.58;58.76;101249.47;4928208;29;20015;-71
2021/11/14 10:54:13;;;;;;;2.10;1.90;;;;;;;15.61;59.02;101254.41;4940278;29;20035;-75
2021/11/14 10:56:43;;;;;;;2.10;1.60;;;;;;;15.54;59.14;101239.00;4924192;29;20024;-72
2021/11/14 10:59:08;;;;;;;2.38;1.38;;;;;;;15.63;59.31;101243.97;4905384;29;20082;-72
2021/11/14 11:01:34;;;;;;;2.13;1.63;;;;;;;15.72;58.65;101261.56;4945747;29;20316;-72
2021/11/14 11:04:06;;;;;;;2.17;1.48;;;;;;;15.67;59.01;101251.38;4924592;29;20043;-75
2021/11/14 11:07:33;;;;;;;2.50;1.45;;;;;;;15.80;58.98;101269.31;4918419;29;20019;-77
2021/11/14 11:17:21;;;;;;;1.45;1.35;;;;;;;15.97;58.68;101273.66;4830287;29;20066;-77
2021/11/14 11:19:59;;;;;;;;;;;;;;;;;;;;;
2021/11/14 11:22:27;;;;;;;2.55;1.63;;;;;;;15.93;57.91;101251.34;4921282;29;20119;-75
2021/11/14 11:24:55;;;;;;;2.20;1.70;;;;;;;15.98;58.03;101256.00;4928108;29;20115;-74
2021/11/14 11:27:22;;;;;;;1.40;1.30;;;;;;;15.99;58.18;101250.19;4910549;29;20039;-74
2021/11/14 11:29:48;;;;;;;2.00;1.77;;;;;;;16.11;58.18;101269.19;4925723;29;20418;-73
2021/11/14 11:32:31;;;;;;;4.00;1.40;;;;;;;16.13;57.99;101258.66;4944411;29;20027;-73
2021/11/14 11:35:01;;;;;;;2.20;2.10;;;;;;;16.17;58.02;101273.56;4933504;29;20038;-75
2021/11/14 11:37:27;;;;;;;4.32;3.25;;;;;;;16.17;57.78;101262.53;4925266;29;20036;-74
2021/11/14 11:39:53;;;;;;;4.03;3.15;;;;;;;16.18;57.92;101255.09;4927324;29;20019;-73
2021/11/14 11:42:30;;;;;;;5.82;1.88;;;;;;;16.17;58.12;101250.66;4938519;29;20028;-75
2021/11/14 11:45:16;;;;;;;1.90;1.80;;;;;;;16.30;57.73;101260.28;4909571;29;20066;-72
2021/11/14 11:47:45;;;;;;;;;;;;;;;16.39;57.75;101264.06;4923906;29;20110;-74
2021/11/14 11:50:11;;;;;;;5.07;2.75;;;;;;;16.26;57.64;101254.47;4940722;29;19921;-71
2021/11/14 11:52:47;;;;;;;2.70;2.50;;;;;;;16.32;57.54;101258.84;4925570;29;20110;-73
2021/11/14 11:55:29;;;;;;;5.85;3.45;;;;;;;16.28;57.78;101255.03;4944928;29;20119;-73
2021/11/14 11:58:23;;;;;;;3.33;2.92;;;;;;;16.40;58.27;101262.97;4926734;29;20033;-78
2021/11/14 12:01:48;;;;;;;;;;;;;;;;;;;;;
2021/11/14 12:12:13;;;;;;;;;;;;;;;;;;;;;
2021/11/14 12:15:04;;;;;;;6.65;2.78;;;;;;;16.58;57.79;101265.03;4858374;29;20061;-78
2021/11/14 12:17:39;;;;;;;;;;;;;;;16.56;57.45;101270.03;4942597;29;20032;-78
2021/11/14 12:20:43;;;;;;;2.65;2.45;;;;;;;16.34;57.10;101250.28;4929183;29;20574;-78
2021/11/14 12:23:59;;;;;;;;;;;;;;;;;;;;;
2021/11/14 12:26:40;;;;;;;3.92;2.95;;;;;;;16.17;57.36;101273.56;4846810;29;20126;-78
2021/11/14 12:29:43;;;;;;;;;;;;;;;;;;;;;
2021/11/14 12:32:26;;;;;;;4.13;3.17;;;;;;;16.08;57.99;101263.38;4848026;29;20093;-76
2021/11/14 12:35:00;;;;;;;5.70;4.72;;;;;;;16.15;58.45;101275.78;4852060;29;20128;-74
2021/11/14 12:37:26;;;;;;;4.07;3.83;;;;;;;16.15;58.05;101264.75;4939406;29;20035;-74
2021/11/14 12:39:54;;;;;;;6.20;4.15;;;;;;;16.28;58.00;101276.25;4942384;29;20027;-73
2021/11/14 12:42:27;;;;;;;3.72;3.42;;;;;;;16.34;58.47;101277.88;4926638;29;20060;-75
2021/11/14 12:45:03;;;;;;;3.35;2.65;;;;;;;16.43;58.42;101270.69;4943823;29;20026;-75
2021/11/14 13:15:15;;;;;;;4.43;3.67;;;;;;;16.00;58.55;101245.50;4845327;29;20042;-73
2021/11/14 13:18:11;;;;;;;6.95;2.75;;;;;;;15.98;58.66;101258.75;4824190;29;20046;-70
2021/11/14 13:20:48;;;;;;;6.47;4.22;;;;;;;15.83;58.49;101262.41;4888809;29;20072;-73
2021/11/14 13:23:13;;;;;;;;;;;;;;;15.92;58.49;101273.69;4921267;29;20107;-73
2021/11/14 13:25:43;;;;;;;;;;;;;;;15.85;58.72;101277.53;4920245;29;19947;-72
2021/11/14 13:28:15;;;;;;;9.13;7.00;;;;;;;15.69;59.14;101262.13;4914794;29;19993;-74
2021/11/14 13:30:45;;;;;;;13.50;6.78;;;;;;;15.74;59.13;101278.66;4914742;29;20020;-73
2021/11/14 13:33:19;;;;;;;4.53;3.95;;;;;;;15.65;59.55;101261.88;4919286;29;20028;-73
2021/11/14 13:35:45;;;;;;;5.40;3.63;;;;;;;15.66;59.64;101262.69;4914999;29;20095;-74
2021/11/14 13:38:23;;;;;;;4.22;3.70;;;;;;;15.71;59.88;101270.94;4922744;29;20032;-71
2021/11/14 13:40:58;;;;;;;;;;;;;;;;;;;;;
2021/11/14 13:43:24;;;;;;;3.75;3.38;;;;;;;15.58;59.54;101260.50;4916878;29;20115;-73
2021/11/14 13:45:50;;;;;;;3.67;3.42;;;;;;;15.59;60.13;101268.47;4890364;29;20051;-74
2021/11/14 13:48:27;;;;;;;6.47;3.35;;;;;;;15.59;59.91;101267.66;4926634;29;20050;-75
2021/11/14 13:50:52;;;;;;;3.10;2.63;;;;;;;15.48;60.23;101251.16;4903508;29;20019;-74
2021/11/14 13:53:23;;;;;;;3.08;2.88;;;;;;;15.53;60.50;101264.91;4906215;29;20482;-75
2021/11/14 13:55:55;;;;;;;4.00;3.58;;;;;;;15.42;60.44;101245.91;4892448;29;20084;-73
2021/11/14 13:58:37;;;;;;;4.60;4.30;;;;;;;15.42;60.26;101255.03;4904750;29;20035;-74
2021/11/14 14:05:03;;;;;;;;;;;;;;;;;;;;;
2021/11/14 14:11:41;;;;;;;;;;;;;;;;;;;;;
2021/11/14 15:05:24;;;;;;;3.45;2.97;;;;;;;14.95;63.10;101265.25;4058564;27;20063;-75
2021/11/14 15:09:18;;;;;;;3.53;2.15;;;;;;;14.85;63.42;101243.22;4906271;29;20082;-75
2021/11/14 15:26:40;;;;;;;;;;;;;;;14.75;63.81;101271.56;4668196;30;20038;-77
2021/11/14 15:29:31;;;;;;;;;;;;;;;;;;;;;
2021/11/14 15:32:21;;;;;;;;;;;;;;;;;;;;;
2021/11/14 15:45:13;;;;;;;;;;;;;;;;;;;;;
2021/11/14 15:54:18;;;;;;;;;;;;;;;;;;;;;
2021/11/14 15:57:07;;;;;;;3.60;3.30;;;;;;;14.00;65.20;101282.06;4916033;29;20086;-77
2021/11/14 16:00:01;;;;;;;3.00;2.80;;;;;;;13.98;65.04;101278.75;4884585;29;20029;-74
2021/11/14 16:02:29;;;;;;;4.32;3.00;;;;;;;13.86;65.43;101281.72;4881165;29;20058;-77
2021/11/14 16:05:20;;;;;;;4.60;2.80;;;;;;;13.96;65.38;101303.78;4859564;29;20056;-77
2021/11/14 16:08:07;;;;;;;3.08;2.88;;;;;;;13.81;65.63;101284.44;4884970;29;20040;-76
2021/11/14 16:10:43;;;;;;;;;;;;;;;;;;;;;
2021/11/14 16:13:10;;;;;;;3.90;3.60;;;;;;;13.76;66.30;101294.31;4884347;29;20866;-76
2021/11/14 16:15:36;;;;;;;2.90;2.65;;;;;;;13.70;66.51;101283.56;4869551;29;20097;-76
2021/11/14 16:18:02;;;;;;;4.20;2.63;;;;;;;13.74;66.28;101302.00;4891598;29;20105;-76
2021/11/14 16:20:29;;;;;;;3.42;3.20;;;;;;;13.73;66.08;101305.03;4892160;29;20033;-78
2021/11/14 16:22:56;;;;;;;3.75;3.20;;;;;;;13.63;66.22;101299.47;4889278;29;20033;-75
2021/11/14 16:25:22;;;;;;;5.45;3.50;;;;;;;13.66;66.54;101309.91;4889300;29;20029;-75
2021/11/14 16:27:50;;;;;;;2.70;2.50;;;;;;;13.64;66.35;101312.94;4898732;29;20146;-77
2021/11/14 16:30:16;;;;;;;3.58;2.25;;;;;;;13.59;66.88;101311.00;4871921;29;20096;-76
2021/11/14 16:32:42;;;;;;;4.03;3.25;;;;;;;13.59;66.86;101312.88;4893273;29;20033;-76
2021/11/14 16:35:08;;;;;;;3.72;3.42;;;;;;;13.56;66.89;101316.16;4892908;29;20044;-77
2021/11/14 16:37:34;;;;;;;4.47;3.13;;;;;;;13.54;67.40;101310.13;4880723;29;20032;-74
2021/11/14 16:40:00;;;;;;;3.83;3.53;;;;;;;13.54;67.30;101318.38;4886779;29;20164;-76
2021/11/14 16:42:26;;;;;;;3.42;3.22;;;;;;;13.42;67.44;101308.38;4882767;29;20036;-73
2021/11/14 16:44:54;;;;;;;3.80;3.60;;;;;;;13.42;67.47;101310.31;4873828;29;20064;-73
2021/11/14 16:47:19;;;;;;;3.35;3.10;;;;;;;13.48;67.35;101319.41;4897031;29;20043;-73